Atlantic - Newfoundland: Past 24 Hour Conditions

 

Port aux Basques

06:30 AM NDT 15 September 2014
This table is a summary of hourly weather conditions for the past 24 hours.
Date / Time
(NDT)
Wind(knots) Conditions Visibility(km) Pressure(kPa) Air tempC) Relative humidity(%) Dew pointC)
15 September 2014
6:30 E 8 Cloudy 3 101.8 11 99 11
5:30 ENE 8 Cloudy 6 101.7 11 99 11
4:30 E 10 Mostly Cloudy 2 101.7 12 99 11
3:30 E 13 Cloudy 6 101.7 12 98 12
2:30 ENE 11 Cloudy 15 101.8 12 96 12
1:30 ENE 13 Cloudy 15 101.8 12 96 12
0:30 E 13 Cloudy 8 101.7 12 97 12
14 September 2014
23:30 E 13 gust 18 Cloudy 3 101.7 12 99 12
22:30 E 14 Cloudy 3 101.7 12 99 12
21:30 E 15 Cloudy 6 101.7 13 99 13
20:30 E 14 Cloudy 3 101.7 13 99 13
19:30 E 13 gust 18 Cloudy 2 101.7 13 99 13
18:30 E 13 gust 20 Cloudy 6 101.7 13 100 13
17:30 E 13 Drizzle 2 101.8 13 99 13
16:30 E 10 Light Rain 2 101.8 13 99 13
15:30 E 11 Cloudy 3 101.9 12 98 12
14:30 ESE 11 Cloudy 11 101.9 12 97 12
13:30 ESE 10 Mostly Cloudy 6 102.0 12 98 12
12:30 ESE 15 gust 21 Light Rain 11 102.1 13 96 12
11:30 ESE 15 gust 20 Light Rain 11 102.2 13 94 12
10:30 ESE 17 Cloudy 15 102.2 13 84 10
9:30 ESE 11 Mostly Cloudy 15 102.3 12 84 9
8:30 SE 12 Partly Cloudy 15 102.4 12 80 9
7:30 ESE 12 Partly Cloudy 15 102.4 11 83 8
6:30 E 10 Mainly Clear 15 102.4 11 83 8
 
Map of Atlantic - Newfoundland marine weather areas Southwestern Grand Banks - 44138 Banquereau - 44139 Tail of the Bank - 44140 Nickerson Bank - 44251 Northeast Burgeo Bank - 44255 Blanc-Sablon Airport Cap Whittle Chevery Natashquan Airport Heath Point Miscou Island Grand Étang Ingonish Beach North Mountain St.Paul Island J.A. Douglas McCurdy Sydney Airport Charlottetown Airport East Point North Cape Argentia Bonavista Burgeo Cape Race Corner Brook Daniel's Harbour Englee Ferolle Point La Scie Port aux Basques Rocky Harbour Sagona Island St. Anthony Airport St. John's Int'l Airport St. Lawrence Stephenville Airport Twillingate Winterland Wreckhouse Cartwright Airport Mary's Harbour Grates Cove Pool's Island Marticot Island Long Pond Îles de la Madeleine Airport
Legend: buoyBuoy land stationLand Station